sensor_id;sensor_type;location;lat;lon;timestamp;P1;durP1;ratioP1;P2;durP2;ratioP2
67861;SDS011;54665;51.462;6.698;2023-07-20T00:00:07;8.67;;;4.30;;
67861;SDS011;54665;51.462;6.698;2023-07-20T00:02:13;7.80;;;4.40;;
67861;SDS011;54665;51.462;6.698;2023-07-20T00:04:13;7.40;;;4.33;;
67861;SDS011;54665;51.462;6.698;2023-07-20T00:06:14;8.05;;;4.35;;
67861;SDS011;54665;51.462;6.698;2023-07-20T00:08:15;8.00;;;4.10;;
67861;SDS011;54665;51.462;6.698;2023-07-20T00:10:16;8.63;;;4.07;;
67861;SDS011;54665;51.462;6.698;2023-07-20T00:12:16;8.57;;;4.20;;
67861;SDS011;54665;51.462;6.698;2023-07-20T00:14:16;9.47;;;4.33;;
67861;SDS011;54665;51.462;6.698;2023-07-20T00:16:17;7.77;;;4.17;;
67861;SDS011;54665;51.462;6.698;2023-07-20T00:18:17;9.00;;;4.30;;
67861;SDS011;54665;51.462;6.698;2023-07-20T00:20:17;8.00;;;4.17;;
67861;SDS011;54665;51.462;6.698;2023-07-20T00:22:18;7.53;;;4.35;;
67861;SDS011;54665;51.462;6.698;2023-07-20T00:24:18;9.53;;;4.23;;
67861;SDS011;54665;51.462;6.698;2023-07-20T00:26:18;8.70;;;4.47;;
67861;SDS011;54665;51.462;6.698;2023-07-20T00:28:20;8.98;;;4.07;;
67861;SDS011;54665;51.462;6.698;2023-07-20T00:30:22;8.60;;;4.10;;
67861;SDS011;54665;51.462;6.698;2023-07-20T00:32:22;9.90;;;4.30;;
67861;SDS011;54665;51.462;6.698;2023-07-20T00:34:23;8.33;;;4.50;;
67861;SDS011;54665;51.462;6.698;2023-07-20T00:36:24;7.07;;;4.30;;
67861;SDS011;54665;51.462;6.698;2023-07-20T00:38:25;5.63;;;3.80;;
67861;SDS011;54665;51.462;6.698;2023-07-20T00:40:25;9.13;;;4.23;;
67861;SDS011;54665;51.462;6.698;2023-07-20T00:42:26;7.90;;;4.20;;
67861;SDS011;54665;51.462;6.698;2023-07-20T00:44:26;6.00;;;3.90;;
67861;SDS011;54665;51.462;6.698;2023-07-20T00:46:27;9.57;;;3.65;;
67861;SDS011;54665;51.462;6.698;2023-07-20T00:48:27;9.10;;;3.90;;
67861;SDS011;54665;51.462;6.698;2023-07-20T00:50:28;6.17;;;3.60;;
67861;SDS011;54665;51.462;6.698;2023-07-20T00:52:29;10.15;;;4.32;;
67861;SDS011;54665;51.462;6.698;2023-07-20T00:54:29;8.85;;;4.50;;
67861;SDS011;54665;51.462;6.698;2023-07-20T00:56:30;6.77;;;4.17;;
67861;SDS011;54665;51.462;6.698;2023-07-20T00:58:30;8.10;;;4.23;;
67861;SDS011;54665;51.462;6.698;2023-07-20T01:00:31;5.83;;;4.03;;
67861;SDS011;54665;51.462;6.698;2023-07-20T01:02:31;7.97;;;4.30;;
67861;SDS011;54665;51.462;6.698;2023-07-20T01:04:32;8.27;;;4.13;;
67861;SDS011;54665;51.462;6.698;2023-07-20T01:06:36;8.20;;;4.20;;
67861;SDS011;54665;51.462;6.698;2023-07-20T01:10:51;8.48;;;4.25;;
67861;SDS011;54665;51.462;6.698;2023-07-20T01:12:59;9.97;;;4.20;;
67861;SDS011;54665;51.462;6.698;2023-07-20T01:15:01;8.75;;;4.38;;
67861;SDS011;54665;51.462;6.698;2023-07-20T01:17:02;9.27;;;4.65;;
67861;SDS011;54665;51.462;6.698;2023-07-20T01:19:03;8.10;;;4.23;;
67861;SDS011;54665;51.462;6.698;2023-07-20T01:21:04;8.67;;;4.40;;
67861;SDS011;54665;51.462;6.698;2023-07-20T01:23:22;8.33;;;4.90;;
67861;SDS011;54665;51.462;6.698;2023-07-20T01:31:12;9.82;;;4.35;;
67861;SDS011;54665;51.462;6.698;2023-07-20T01:33:27;8.65;;;4.25;;
67861;SDS011;54665;51.462;6.698;2023-07-20T01:35:31;9.90;;;4.50;;
67861;SDS011;54665;51.462;6.698;2023-07-20T01:37:32;8.63;;;4.38;;
67861;SDS011;54665;51.462;6.698;2023-07-20T01:39:34;10.27;;;4.78;;
67861;SDS011;54665;51.462;6.698;2023-07-20T01:41:35;10.18;;;5.32;;
67861;SDS011;54665;51.462;6.698;2023-07-20T01:43:36;9.93;;;4.97;;
67861;SDS011;54665;51.462;6.698;2023-07-20T01:45:36;10.67;;;5.00;;
67861;SDS011;54665;51.462;6.698;2023-07-20T01:47:37;10.17;;;5.57;;
67861;SDS011;54665;51.462;6.698;2023-07-20T01:49:37;11.37;;;5.47;;
67861;SDS011;54665;51.462;6.698;2023-07-20T01:51:37;13.07;;;5.80;;
67861;SDS011;54665;51.462;6.698;2023-07-20T01:53:37;10.33;;;6.13;;
67861;SDS011;54665;51.462;6.698;2023-07-20T01:55:38;11.07;;;5.57;;
67861;SDS011;54665;51.462;6.698;2023-07-20T01:57:38;13.77;;;6.07;;
67861;SDS011;54665;51.462;6.698;2023-07-20T01:59:38;10.77;;;5.70;;
67861;SDS011;54665;51.462;6.698;2023-07-20T02:01:39;10.18;;;5.60;;
67861;SDS011;54665;51.462;6.698;2023-07-20T02:03:39;10.80;;;5.53;;
67861;SDS011;54665;51.462;6.698;2023-07-20T02:05:43;9.97;;;5.80;;
67861;SDS011;54665;51.462;6.698;2023-07-20T02:07:43;11.23;;;5.90;;
67861;SDS011;54665;51.462;6.698;2023-07-20T02:09:44;12.30;;;5.77;;
67861;SDS011;54665;51.462;6.698;2023-07-20T02:11:44;11.33;;;5.37;;
67861;SDS011;54665;51.462;6.698;2023-07-20T02:13:44;14.30;;;6.30;;
67861;SDS011;54665;51.462;6.698;2023-07-20T02:15:45;12.80;;;6.07;;
67861;SDS011;54665;51.462;6.698;2023-07-20T02:17:45;14.20;;;6.93;;
67861;SDS011;54665;51.462;6.698;2023-07-20T02:19:45;14.75;;;6.68;;
67861;SDS011;54665;51.462;6.698;2023-07-20T02:21:46;16.40;;;7.37;;
67861;SDS011;54665;51.462;6.698;2023-07-20T02:23:46;17.27;;;7.87;;
67861;SDS011;54665;51.462;6.698;2023-07-20T02:25:46;22.07;;;8.33;;
67861;SDS011;54665;51.462;6.698;2023-07-20T02:27:47;23.07;;;8.67;;
67861;SDS011;54665;51.462;6.698;2023-07-20T02:29:47;19.33;;;8.73;;
67861;SDS011;54665;51.462;6.698;2023-07-20T02:31:47;24.83;;;9.52;;
67861;SDS011;54665;51.462;6.698;2023-07-20T02:33:48;23.80;;;9.37;;
67861;SDS011;54665;51.462;6.698;2023-07-20T02:35:48;22.80;;;10.43;;
67861;SDS011;54665;51.462;6.698;2023-07-20T02:37:48;25.20;;;10.17;;
67861;SDS011;54665;51.462;6.698;2023-07-20T02:39:48;23.20;;;10.63;;
67861;SDS011;54665;51.462;6.698;2023-07-20T02:41:49;22.67;;;10.90;;
67861;SDS011;54665;51.462;6.698;2023-07-20T02:43:49;25.27;;;11.43;;
67861;SDS011;54665;51.462;6.698;2023-07-20T02:45:50;22.92;;;10.57;;
67861;SDS011;54665;51.462;6.698;2023-07-20T02:47:51;22.93;;;10.17;;
67861;SDS011;54665;51.462;6.698;2023-07-20T02:49:52;23.20;;;10.63;;
67861;SDS011;54665;51.462;6.698;2023-07-20T02:51:52;24.10;;;11.38;;
67861;SDS011;54665;51.462;6.698;2023-07-20T02:53:53;21.50;;;10.57;;
67861;SDS011;54665;51.462;6.698;2023-07-20T02:55:53;19.97;;;10.10;;
67861;SDS011;54665;51.462;6.698;2023-07-20T02:57:53;23.10;;;10.27;;
67861;SDS011;54665;51.462;6.698;2023-07-20T02:59:54;21.87;;;10.07;;
67861;SDS011;54665;51.462;6.698;2023-07-20T03:01:54;26.73;;;11.07;;
67861;SDS011;54665;51.462;6.698;2023-07-20T03:03:55;22.90;;;11.07;;
67861;SDS011;54665;51.462;6.698;2023-07-20T03:05:55;24.37;;;11.13;;
67861;SDS011;54665;51.462;6.698;2023-07-20T03:07:56;30.02;;;11.77;;
67861;SDS011;54665;51.462;6.698;2023-07-20T03:09:56;27.67;;;11.03;;
67861;SDS011;54665;51.462;6.698;2023-07-20T03:11:56;26.97;;;11.43;;
67861;SDS011;54665;51.462;6.698;2023-07-20T03:13:57;25.40;;;11.57;;
67861;SDS011;54665;51.462;6.698;2023-07-20T03:15:57;26.20;;;11.77;;
67861;SDS011;54665;51.462;6.698;2023-07-20T03:17:58;30.50;;;12.00;;
67861;SDS011;54665;51.462;6.698;2023-07-20T03:19:58;29.37;;;12.20;;
67861;SDS011;54665;51.462;6.698;2023-07-20T03:21:58;30.73;;;12.50;;
67861;SDS011;54665;51.462;6.698;2023-07-20T03:23:59;30.37;;;12.43;;
67861;SDS011;54665;51.462;6.698;2023-07-20T03:26:00;31.00;;;12.23;;
67861;SDS011;54665;51.462;6.698;2023-07-20T03:28:00;28.70;;;12.52;;
67861;SDS011;54665;51.462;6.698;2023-07-20T03:30:02;28.80;;;12.02;;
67861;SDS011;54665;51.462;6.698;2023-07-20T03:32:03;29.98;;;12.05;;
67861;SDS011;54665;51.462;6.698;2023-07-20T03:34:04;28.90;;;12.27;;
67861;SDS011;54665;51.462;6.698;2023-07-20T03:36:05;26.23;;;11.82;;
67861;SDS011;54665;51.462;6.698;2023-07-20T03:38:05;31.63;;;12.60;;
67861;SDS011;54665;51.462;6.698;2023-07-20T03:40:06;29.27;;;12.30;;
67861;SDS011;54665;51.462;6.698;2023-07-20T03:42:07;34.47;;;13.23;;
67861;SDS011;54665;51.462;6.698;2023-07-20T03:44:08;29.88;;;12.95;;
67861;SDS011;54665;51.462;6.698;2023-07-20T03:46:08;28.30;;;12.40;;
67861;SDS011;54665;51.462;6.698;2023-07-20T03:48:08;27.93;;;12.60;;
67861;SDS011;54665;51.462;6.698;2023-07-20T03:50:08;28.70;;;12.07;;
67861;SDS011;54665;51.462;6.698;2023-07-20T03:52:09;31.00;;;13.27;;
67861;SDS011;54665;51.462;6.698;2023-07-20T03:54:09;31.97;;;14.27;;
67861;SDS011;54665;51.462;6.698;2023-07-20T03:56:09;33.30;;;14.50;;
67861;SDS011;54665;51.462;6.698;2023-07-20T03:58:10;32.70;;;15.47;;
67861;SDS011;54665;51.462;6.698;2023-07-20T04:00:10;35.17;;;14.73;;
67861;SDS011;54665;51.462;6.698;2023-07-20T04:02:14;35.33;;;15.38;;
67861;SDS011;54665;51.462;6.698;2023-07-20T04:04:16;36.58;;;15.43;;
67861;SDS011;54665;51.462;6.698;2023-07-20T04:06:16;36.87;;;15.63;;
67861;SDS011;54665;51.462;6.698;2023-07-20T04:08:17;33.87;;;15.33;;
67861;SDS011;54665;51.462;6.698;2023-07-20T04:10:18;36.97;;;15.67;;
67861;SDS011;54665;51.462;6.698;2023-07-20T04:12:18;36.33;;;16.45;;
67861;SDS011;54665;51.462;6.698;2023-07-20T04:14:19;38.90;;;17.20;;
67861;SDS011;54665;51.462;6.698;2023-07-20T04:16:19;37.57;;;16.40;;
67861;SDS011;54665;51.462;6.698;2023-07-20T04:18:19;35.50;;;15.75;;
67861;SDS011;54665;51.462;6.698;2023-07-20T04:20:19;37.93;;;16.33;;
67861;SDS011;54665;51.462;6.698;2023-07-20T04:22:20;37.30;;;15.70;;
67861;SDS011;54665;51.462;6.698;2023-07-20T04:24:20;38.20;;;16.33;;
67861;SDS011;54665;51.462;6.698;2023-07-20T04:26:20;37.77;;;16.80;;
67861;SDS011;54665;51.462;6.698;2023-07-20T04:28:21;39.40;;;16.57;;
67861;SDS011;54665;51.462;6.698;2023-07-20T04:30:23;34.72;;;16.48;;
67861;SDS011;54665;51.462;6.698;2023-07-20T04:32:23;38.27;;;16.07;;
67861;SDS011;54665;51.462;6.698;2023-07-20T04:34:23;37.40;;;16.37;;
67861;SDS011;54665;51.462;6.698;2023-07-20T04:36:24;40.35;;;16.83;;
67861;SDS011;54665;51.462;6.698;2023-07-20T04:38:26;38.97;;;16.30;;
67861;SDS011;54665;51.462;6.698;2023-07-20T04:40:39;38.33;;;16.50;;
67861;SDS011;54665;51.462;6.698;2023-07-20T04:42:39;36.40;;;16.60;;
67861;SDS011;54665;51.462;6.698;2023-07-20T04:44:40;39.57;;;16.23;;
67861;SDS011;54665;51.462;6.698;2023-07-20T04:46:42;33.38;;;15.45;;
67861;SDS011;54665;51.462;6.698;2023-07-20T04:48:42;36.40;;;16.03;;
67861;SDS011;54665;51.462;6.698;2023-07-20T04:50:43;37.03;;;16.47;;
67861;SDS011;54665;51.462;6.698;2023-07-20T04:52:45;35.75;;;17.23;;
67861;SDS011;54665;51.462;6.698;2023-07-20T04:54:49;36.88;;;16.75;;
67861;SDS011;54665;51.462;6.698;2023-07-20T04:56:50;38.50;;;17.13;;
67861;SDS011;54665;51.462;6.698;2023-07-20T04:58:52;37.22;;;16.67;;
67861;SDS011;54665;51.462;6.698;2023-07-20T05:00:53;36.83;;;16.40;;
67861;SDS011;54665;51.462;6.698;2023-07-20T05:02:54;38.22;;;16.92;;
67861;SDS011;54665;51.462;6.698;2023-07-20T05:04:55;33.10;;;15.18;;
67861;SDS011;54665;51.462;6.698;2023-07-20T05:06:55;32.77;;;15.97;;
67861;SDS011;54665;51.462;6.698;2023-07-20T05:08:56;31.17;;;14.30;;
67861;SDS011;54665;51.462;6.698;2023-07-20T05:10:59;29.90;;;13.10;;
67861;SDS011;54665;51.462;6.698;2023-07-20T05:13:00;22.33;;;11.60;;
67861;SDS011;54665;51.462;6.698;2023-07-20T05:15:00;21.63;;;10.63;;
67861;SDS011;54665;51.462;6.698;2023-07-20T05:17:00;17.77;;;9.67;;
67861;SDS011;54665;51.462;6.698;2023-07-20T05:19:01;15.97;;;9.00;;
67861;SDS011;54665;51.462;6.698;2023-07-20T05:21:01;13.23;;;7.33;;
67861;SDS011;54665;51.462;6.698;2023-07-20T05:23:02;14.65;;;7.13;;
67861;SDS011;54665;51.462;6.698;2023-07-20T05:25:02;13.83;;;6.93;;
67861;SDS011;54665;51.462;6.698;2023-07-20T05:27:03;10.37;;;6.27;;
67861;SDS011;54665;51.462;6.698;2023-07-20T05:29:03;11.23;;;6.07;;
67861;SDS011;54665;51.462;6.698;2023-07-20T05:31:04;9.53;;;5.83;;
67861;SDS011;54665;51.462;6.698;2023-07-20T05:33:04;9.37;;;5.57;;
67861;SDS011;54665;51.462;6.698;2023-07-20T05:35:04;8.67;;;5.30;;
67861;SDS011;54665;51.462;6.698;2023-07-20T05:37:05;9.45;;;5.07;;
67861;SDS011;54665;51.462;6.698;2023-07-20T05:39:06;8.80;;;5.10;;
67861;SDS011;54665;51.462;6.698;2023-07-20T05:41:06;9.03;;;5.10;;
67861;SDS011;54665;51.462;6.698;2023-07-20T05:43:06;9.70;;;4.83;;
67861;SDS011;54665;51.462;6.698;2023-07-20T05:45:07;9.50;;;5.03;;
67861;SDS011;54665;51.462;6.698;2023-07-20T05:47:07;9.27;;;5.37;;
67861;SDS011;54665;51.462;6.698;2023-07-20T05:49:07;11.30;;;6.00;;
67861;SDS011;54665;51.462;6.698;2023-07-20T05:51:08;10.37;;;5.97;;
67861;SDS011;54665;51.462;6.698;2023-07-20T05:53:08;10.10;;;5.83;;
67861;SDS011;54665;51.462;6.698;2023-07-20T05:55:08;9.60;;;6.23;;
67861;SDS011;54665;51.462;6.698;2023-07-20T05:57:09;10.73;;;6.10;;
67861;SDS011;54665;51.462;6.698;2023-07-20T05:59:09;9.77;;;6.03;;
67861;SDS011;54665;51.462;6.698;2023-07-20T06:01:09;10.57;;;5.90;;
67861;SDS011;54665;51.462;6.698;2023-07-20T06:03:10;10.73;;;6.05;;
67861;SDS011;54665;51.462;6.698;2023-07-20T06:05:10;10.13;;;6.07;;
67861;SDS011;54665;51.462;6.698;2023-07-20T06:07:10;10.73;;;6.10;;
67861;SDS011;54665;51.462;6.698;2023-07-20T06:09:11;10.40;;;5.50;;
67861;SDS011;54665;51.462;6.698;2023-07-20T06:11:11;8.67;;;5.17;;
67861;SDS011;54665;51.462;6.698;2023-07-20T06:13:11;10.65;;;5.78;;
67861;SDS011;54665;51.462;6.698;2023-07-20T06:15:54;9.27;;;5.50;;
67861;SDS011;54665;51.462;6.698;2023-07-20T06:17:35;9.52;;;4.55;;
67861;SDS011;54665;51.462;6.698;2023-07-20T06:19:36;7.07;;;4.20;;
67861;SDS011;54665;51.462;6.698;2023-07-20T06:21:36;6.93;;;4.10;;
67861;SDS011;54665;51.462;6.698;2023-07-20T06:23:36;7.13;;;4.00;;
67861;SDS011;54665;51.462;6.698;2023-07-20T06:25:36;6.43;;;4.20;;
67861;SDS011;54665;51.462;6.698;2023-07-20T06:27:37;5.77;;;4.27;;
67861;SDS011;54665;51.462;6.698;2023-07-20T06:29:37;7.77;;;4.77;;
67861;SDS011;54665;51.462;6.698;2023-07-20T06:31:37;10.00;;;5.10;;
67861;SDS011;54665;51.462;6.698;2023-07-20T06:33:38;8.82;;;5.28;;
67861;SDS011;54665;51.462;6.698;2023-07-20T06:35:41;8.87;;;5.80;;
67861;SDS011;54665;51.462;6.698;2023-07-20T06:37:41;7.75;;;5.10;;
67861;SDS011;54665;51.462;6.698;2023-07-20T06:39:42;9.70;;;5.33;;
67861;SDS011;54665;51.462;6.698;2023-07-20T06:41:42;7.23;;;4.30;;
67861;SDS011;54665;51.462;6.698;2023-07-20T06:43:42;7.67;;;3.70;;
67861;SDS011;54665;51.462;6.698;2023-07-20T06:45:42;4.30;;;2.80;;
67861;SDS011;54665;51.462;6.698;2023-07-20T06:47:43;4.50;;;2.57;;
67861;SDS011;54665;51.462;6.698;2023-07-20T06:49:43;3.30;;;2.60;;
67861;SDS011;54665;51.462;6.698;2023-07-20T06:51:43;5.00;;;2.30;;
67861;SDS011;54665;51.462;6.698;2023-07-20T06:53:44;3.92;;;3.05;;
67861;SDS011;54665;51.462;6.698;2023-07-20T06:55:44;5.00;;;3.30;;
67861;SDS011;54665;51.462;6.698;2023-07-20T06:57:44;5.63;;;3.97;;
67861;SDS011;54665;51.462;6.698;2023-07-20T06:59:45;5.63;;;4.40;;
67861;SDS011;54665;51.462;6.698;2023-07-20T07:01:45;5.03;;;4.20;;
67861;SDS011;54665;51.462;6.698;2023-07-20T07:03:45;5.97;;;5.03;;
67861;SDS011;54665;51.462;6.698;2023-07-20T07:05:46;6.77;;;5.20;;
67861;SDS011;54665;51.462;6.698;2023-07-20T07:07:46;7.15;;;5.05;;
67861;SDS011;54665;51.462;6.698;2023-07-20T07:09:46;7.40;;;4.93;;
67861;SDS011;54665;51.462;6.698;2023-07-20T07:11:46;5.70;;;4.63;;
67861;SDS011;54665;51.462;6.698;2023-07-20T07:13:47;5.90;;;4.50;;
67861;SDS011;54665;51.462;6.698;2023-07-20T07:15:47;5.40;;;4.50;;
67861;SDS011;54665;51.462;6.698;2023-07-20T07:17:48;4.70;;;4.00;;
67861;SDS011;54665;51.462;6.698;2023-07-20T07:19:48;4.97;;;4.13;;
67861;SDS011;54665;51.462;6.698;2023-07-20T07:21:48;4.87;;;3.60;;
67861;SDS011;54665;51.462;6.698;2023-07-20T07:23:48;3.27;;;2.43;;
67861;SDS011;54665;51.462;6.698;2023-07-20T07:25:49;3.00;;;2.50;;
67861;SDS011;54665;51.462;6.698;2023-07-20T07:27:49;3.47;;;2.80;;
67861;SDS011;54665;51.462;6.698;2023-07-20T07:29:50;4.18;;;2.90;;
67861;SDS011;54665;51.462;6.698;2023-07-20T07:31:51;4.50;;;3.00;;
67861;SDS011;54665;51.462;6.698;2023-07-20T07:33:51;4.17;;;3.10;;
67861;SDS011;54665;51.462;6.698;2023-07-20T07:35:52;4.60;;;4.00;;
67861;SDS011;54665;51.462;6.698;2023-07-20T07:37:52;4.97;;;4.27;;
67861;SDS011;54665;51.462;6.698;2023-07-20T07:39:52;5.60;;;4.17;;
67861;SDS011;54665;51.462;6.698;2023-07-20T07:41:53;4.93;;;3.40;;
67861;SDS011;54665;51.462;6.698;2023-07-20T07:43:53;5.03;;;4.10;;
67861;SDS011;54665;51.462;6.698;2023-07-20T07:45:54;5.37;;;4.20;;
67861;SDS011;54665;51.462;6.698;2023-07-20T07:47:54;4.20;;;3.17;;
67861;SDS011;54665;51.462;6.698;2023-07-20T07:49:55;5.20;;;3.77;;
67861;SDS011;54665;51.462;6.698;2023-07-20T07:51:55;4.63;;;3.70;;
67861;SDS011;54665;51.462;6.698;2023-07-20T07:53:55;4.20;;;3.60;;
67861;SDS011;54665;51.462;6.698;2023-07-20T07:55:55;3.90;;;3.00;;
67861;SDS011;54665;51.462;6.698;2023-07-20T07:57:56;3.50;;;2.87;;
67861;SDS011;54665;51.462;6.698;2023-07-20T07:59:56;3.83;;;2.80;;
67861;SDS011;54665;51.462;6.698;2023-07-20T08:01:56;3.30;;;2.60;;
67861;SDS011;54665;51.462;6.698;2023-07-20T08:03:57;3.60;;;2.90;;
67861;SDS011;54665;51.462;6.698;2023-07-20T08:05:57;2.63;;;2.20;;
67861;SDS011;54665;51.462;6.698;2023-07-20T08:07:57;2.77;;;2.20;;
67861;SDS011;54665;51.462;6.698;2023-07-20T08:09:58;3.00;;;2.10;;
67861;SDS011;54665;51.462;6.698;2023-07-20T08:11:58;2.70;;;1.90;;
67861;SDS011;54665;51.462;6.698;2023-07-20T08:13:59;2.17;;;1.50;;
67861;SDS011;54665;51.462;6.698;2023-07-20T08:16:00;3.35;;;1.70;;
67861;SDS011;54665;51.462;6.698;2023-07-20T08:18:01;2.97;;;2.20;;
67861;SDS011;54665;51.462;6.698;2023-07-20T08:20:01;2.40;;;2.20;;
67861;SDS011;54665;51.462;6.698;2023-07-20T08:22:02;2.63;;;2.03;;
67861;SDS011;54665;51.462;6.698;2023-07-20T08:24:02;3.10;;;2.10;;
67861;SDS011;54665;51.462;6.698;2023-07-20T08:26:03;2.93;;;2.27;;
67861;SDS011;54665;51.462;6.698;2023-07-20T08:28:04;2.88;;;2.45;;
67861;SDS011;54665;51.462;6.698;2023-07-20T08:30:04;3.10;;;2.23;;
67861;SDS011;54665;51.462;6.698;2023-07-20T08:32:05;2.83;;;2.40;;
67861;SDS011;54665;51.462;6.698;2023-07-20T08:34:06;2.58;;;2.13;;
67861;SDS011;54665;51.462;6.698;2023-07-20T08:36:06;3.00;;;2.10;;
67861;SDS011;54665;51.462;6.698;2023-07-20T08:38:06;2.53;;;1.70;;
67861;SDS011;54665;51.462;6.698;2023-07-20T08:40:07;2.73;;;1.80;;
67861;SDS011;54665;51.462;6.698;2023-07-20T08:42:08;2.42;;;2.00;;
67861;SDS011;54665;51.462;6.698;2023-07-20T08:44:10;2.80;;;2.10;;
67861;SDS011;54665;51.462;6.698;2023-07-20T08:46:11;2.30;;;1.77;;
67861;SDS011;54665;51.462;6.698;2023-07-20T08:48:12;2.15;;;1.50;;
67861;SDS011;54665;51.462;6.698;2023-07-20T08:50:13;1.48;;;1.10;;
67861;SDS011;54665;51.462;6.698;2023-07-20T08:52:14;1.63;;;1.20;;
67861;SDS011;54665;51.462;6.698;2023-07-20T08:54:15;1.45;;;1.10;;
67861;SDS011;54665;51.462;6.698;2023-07-20T08:56:16;1.75;;;1.42;;
67861;SDS011;54665;51.462;6.698;2023-07-20T08:58:20;2.47;;;1.50;;
67861;SDS011;54665;51.462;6.698;2023-07-20T09:00:21;3.80;;;1.60;;
67861;SDS011;54665;51.462;6.698;2023-07-20T09:02:21;1.85;;;1.27;;
67861;SDS011;54665;51.462;6.698;2023-07-20T09:04:26;1.75;;;1.17;;
67861;SDS011;54665;51.462;6.698;2023-07-20T09:06:27;2.87;;;1.20;;
67861;SDS011;54665;51.462;6.698;2023-07-20T09:08:27;2.10;;;1.50;;
67861;SDS011;54665;51.462;6.698;2023-07-20T09:10:27;1.80;;;1.40;;
67861;SDS011;54665;51.462;6.698;2023-07-20T09:12:28;1.70;;;1.47;;
67861;SDS011;54665;51.462;6.698;2023-07-20T09:14:28;2.00;;;1.30;;
67861;SDS011;54665;51.462;6.698;2023-07-20T09:16:30;1.70;;;1.30;;
67861;SDS011;54665;51.462;6.698;2023-07-20T09:18:31;2.30;;;1.30;;
67861;SDS011;54665;51.462;6.698;2023-07-20T09:20:32;1.85;;;1.48;;
67861;SDS011;54665;51.462;6.698;2023-07-20T09:22:33;2.35;;;1.38;;
67861;SDS011;54665;51.462;6.698;2023-07-20T09:24:34;1.85;;;1.30;;
67861;SDS011;54665;51.462;6.698;2023-07-20T09:26:36;2.33;;;1.40;;
67861;SDS011;54665;51.462;6.698;2023-07-20T09:28:44;1.52;;;1.25;;
67861;SDS011;54665;51.462;6.698;2023-07-20T09:30:48;1.63;;;1.20;;
67861;SDS011;54665;51.462;6.698;2023-07-20T09:32:49;2.15;;;1.00;;
67861;SDS011;54665;51.462;6.698;2023-07-20T09:34:49;1.63;;;1.07;;
67861;SDS011;54665;51.462;6.698;2023-07-20T09:36:50;0.90;;;0.70;;
67861;SDS011;54665;51.462;6.698;2023-07-20T09:38:51;1.50;;;1.20;;
67861;SDS011;54665;51.462;6.698;2023-07-20T09:40:51;1.57;;;1.20;;
67861;SDS011;54665;51.462;6.698;2023-07-20T09:42:52;3.03;;;1.40;;
67861;SDS011;54665;51.462;6.698;2023-07-20T09:44:53;1.77;;;1.20;;
67861;SDS011;54665;51.462;6.698;2023-07-20T09:46:54;3.33;;;1.50;;
67861;SDS011;54665;51.462;6.698;2023-07-20T09:48:54;2.53;;;1.80;;
67861;SDS011;54665;51.462;6.698;2023-07-20T09:50:55;2.00;;;1.80;;
67861;SDS011;54665;51.462;6.698;2023-07-20T09:52:56;2.10;;;1.80;;
67861;SDS011;54665;51.462;6.698;2023-07-20T09:54:57;2.40;;;1.77;;
67861;SDS011;54665;51.462;6.698;2023-07-20T09:56:58;2.50;;;1.63;;
67861;SDS011;54665;51.462;6.698;2023-07-20T09:58:58;2.47;;;1.60;;
67861;SDS011;54665;51.462;6.698;2023-07-20T10:00:59;2.20;;;1.60;;
67861;SDS011;54665;51.462;6.698;2023-07-20T10:03:06;1.80;;;1.40;;
67861;SDS011;54665;51.462;6.698;2023-07-20T10:05:07;2.53;;;1.80;;
67861;SDS011;54665;51.462;6.698;2023-07-20T10:07:09;4.32;;;1.67;;
67861;SDS011;54665;51.462;6.698;2023-07-20T10:09:10;1.60;;;1.33;;
67861;SDS011;54665;51.462;6.698;2023-07-20T10:11:15;2.95;;;1.55;;
67861;SDS011;54665;51.462;6.698;2023-07-20T10:13:17;3.25;;;1.30;;
67861;SDS011;54665;51.462;6.698;2023-07-20T10:15:31;1.58;;;1.10;;
67861;SDS011;54665;51.462;6.698;2023-07-20T10:17:33;1.40;;;1.10;;
67861;SDS011;54665;51.462;6.698;2023-07-20T10:21:45;4.30;;;1.02;;
67861;SDS011;54665;51.462;6.698;2023-07-20T10:23:48;1.30;;;1.02;;
67861;SDS011;54665;51.462;6.698;2023-07-20T10:25:49;1.40;;;1.00;;
67861;SDS011;54665;51.462;6.698;2023-07-20T10:27:50;2.55;;;1.10;;
67861;SDS011;54665;51.462;6.698;2023-07-20T10:29:51;2.77;;;1.20;;
67861;SDS011;54665;51.462;6.698;2023-07-20T10:31:52;1.40;;;0.95;;
67861;SDS011;54665;51.462;6.698;2023-07-20T10:33:52;3.97;;;0.93;;
67861;SDS011;54665;51.462;6.698;2023-07-20T10:35:56;2.13;;;1.10;;
67861;SDS011;54665;51.462;6.698;2023-07-20T10:38:00;2.78;;;1.35;;
67861;SDS011;54665;51.462;6.698;2023-07-20T10:40:23;2.22;;;1.40;;
67861;SDS011;54665;51.462;6.698;2023-07-20T10:42:25;2.10;;;1.02;;
67861;SDS011;54665;51.462;6.698;2023-07-20T10:44:33;2.08;;;1.10;;
67861;SDS011;54665;51.462;6.698;2023-07-20T10:46:43;1.90;;;1.10;;
67861;SDS011;54665;51.462;6.698;2023-07-20T10:49:01;1.42;;;1.00;;
67861;SDS011;54665;51.462;6.698;2023-07-20T10:51:12;2.17;;;1.23;;
67861;SDS011;54665;51.462;6.698;2023-07-20T10:53:14;1.58;;;1.15;;
67861;SDS011;54665;51.462;6.698;2023-07-20T10:55:16;2.83;;;1.02;;
67861;SDS011;54665;51.462;6.698;2023-07-20T10:57:50;1.60;;;1.10;;
67861;SDS011;54665;51.462;6.698;2023-07-20T11:00:10;1.25;;;1.00;;
67861;SDS011;54665;51.462;6.698;2023-07-20T11:02:12;1.20;;;1.00;;
67861;SDS011;54665;51.462;6.698;2023-07-20T11:04:13;1.43;;;1.00;;
67861;SDS011;54665;51.462;6.698;2023-07-20T11:08:38;1.40;;;0.90;;
67861;SDS011;54665;51.462;6.698;2023-07-20T11:10:39;3.13;;;0.90;;
67861;SDS011;54665;51.462;6.698;2023-07-20T11:12:40;1.30;;;0.80;;
67861;SDS011;54665;51.462;6.698;2023-07-20T11:14:41;1.43;;;1.00;;
67861;SDS011;54665;51.462;6.698;2023-07-20T11:17:10;1.10;;;0.80;;
67861;SDS011;54665;51.462;6.698;2023-07-20T11:19:21;1.25;;;0.80;;
67861;SDS011;54665;51.462;6.698;2023-07-20T11:21:21;2.47;;;1.00;;
67861;SDS011;54665;51.462;6.698;2023-07-20T11:23:22;2.47;;;0.90;;
67861;SDS011;54665;51.462;6.698;2023-07-20T11:25:22;1.47;;;1.10;;
67861;SDS011;54665;51.462;6.698;2023-07-20T11:27:23;2.27;;;1.23;;
67861;SDS011;54665;51.462;6.698;2023-07-20T11:29:24;1.88;;;1.10;;
67861;SDS011;54665;51.462;6.698;2023-07-20T11:31:24;1.40;;;1.10;;
67861;SDS011;54665;51.462;6.698;2023-07-20T11:33:24;2.10;;;1.23;;
67861;SDS011;54665;51.462;6.698;2023-07-20T11:35:25;1.65;;;1.10;;
67861;SDS011;54665;51.462;6.698;2023-07-20T11:37:25;1.87;;;1.13;;
67861;SDS011;54665;51.462;6.698;2023-07-20T11:39:25;1.70;;;1.00;;
67861;SDS011;54665;51.462;6.698;2023-07-20T11:41:26;1.57;;;1.10;;
67861;SDS011;54665;51.462;6.698;2023-07-20T11:43:26;2.40;;;1.20;;
67861;SDS011;54665;51.462;6.698;2023-07-20T11:45:26;1.58;;;0.98;;
67861;SDS011;54665;51.462;6.698;2023-07-20T11:47:29;1.67;;;1.00;;
67861;SDS011;54665;51.462;6.698;2023-07-20T11:49:29;1.98;;;1.10;;
67861;SDS011;54665;51.462;6.698;2023-07-20T11:51:31;4.70;;;0.90;;
67861;SDS011;54665;51.462;6.698;2023-07-20T11:53:31;1.95;;;0.93;;
67861;SDS011;54665;51.462;6.698;2023-07-20T11:55:32;1.60;;;0.90;;
67861;SDS011;54665;51.462;6.698;2023-07-20T11:57:32;1.47;;;0.90;;
67861;SDS011;54665;51.462;6.698;2023-07-20T11:59:33;2.35;;;0.90;;
67861;SDS011;54665;51.462;6.698;2023-07-20T12:01:34;1.73;;;0.80;;
67861;SDS011;54665;51.462;6.698;2023-07-20T12:03:34;1.30;;;0.80;;
67861;SDS011;54665;51.462;6.698;2023-07-20T12:05:34;1.20;;;0.77;;
67861;SDS011;54665;51.462;6.698;2023-07-20T12:07:36;1.42;;;0.90;;
67861;SDS011;54665;51.462;6.698;2023-07-20T12:09:36;1.33;;;0.87;;
67861;SDS011;54665;51.462;6.698;2023-07-20T12:11:37;1.20;;;0.80;;
67861;SDS011;54665;51.462;6.698;2023-07-20T12:13:43;2.03;;;1.05;;
67861;SDS011;54665;51.462;6.698;2023-07-20T12:15:44;1.30;;;0.80;;
67861;SDS011;54665;51.462;6.698;2023-07-20T12:17:44;1.77;;;0.80;;